ADDS TAF Data INFO
IDs: Format: Raw Decoded Include METARs

Data at: 1930 UTC 17 Jul 2018

KLEX 171854Z 33009G17KT 10SM CLR 31/21 A2999 RMK AO2 SLP144 T03110206

KLEX 171739Z 1718/1818 34008KT P6SM FEW040
  FM172300 35006KT P6SM SKC
  FM180400 01003KT P6SM FEW250
  FM181400 04005KT P6SM SCT040